createdAt,value
2018-02-11T00:01:10.861Z,99.50
2018-02-11T00:03:40.109Z,99.50
2018-02-11T00:06:09.386Z,99.50
2018-02-11T00:08:39.412Z,99.60
2018-02-11T00:11:08.681Z,99.80
2018-02-11T00:13:37.923Z,99.70
2018-02-11T00:16:07.426Z,99.50
2018-02-11T00:18:36.715Z,99.50
2018-02-11T00:21:06.764Z,99.30
2018-02-11T00:23:36.035Z,99.30
2018-02-11T00:26:05.340Z,99.50
2018-02-11T00:28:34.740Z,99.50
2018-02-11T00:31:04.754Z,99.40
2018-02-11T00:33:34.025Z,99.40
2018-02-11T00:36:03.246Z,99.40
2018-02-11T00:38:33.318Z,99.60
2018-02-11T00:41:02.651Z,99.60
2018-02-11T00:43:31.897Z,99.90
2018-02-11T00:46:01.128Z,99.90
2018-02-11T00:48:30.374Z,99.90
2018-02-11T00:51:00.436Z,99.90
2018-02-11T00:53:29.663Z,99.90
2018-02-11T00:55:58.907Z,99.90
2018-02-11T00:58:28.149Z,99.90
2018-02-11T01:00:57.400Z,99.90
2018-02-11T01:03:26.649Z,99.90
2018-02-11T01:05:55.909Z,99.90
2018-02-11T01:08:25.174Z,99.90
2018-02-11T01:10:54.457Z,99.90
2018-02-11T01:13:23.695Z,99.90
2018-02-11T01:15:53.007Z,99.90
2018-02-11T01:18:22.242Z,99.90
2018-02-11T01:20:52.316Z,99.90
2018-02-11T01:23:22.339Z,99.90
2018-02-11T01:25:51.588Z,99.90
2018-02-11T01:28:20.840Z,99.90
2018-02-11T01:30:50.837Z,99.90
2018-02-11T01:33:20.093Z,99.90
2018-02-11T01:35:49.326Z,99.90
2018-02-11T01:38:18.577Z,99.90
2018-02-11T01:40:47.831Z,99.90
2018-02-11T01:43:17.061Z,99.90
2018-02-11T01:45:46.360Z,99.90
2018-02-11T01:48:16.398Z,99.90
2018-02-11T01:50:45.669Z,99.90
2018-02-11T01:53:14.910Z,99.90
2018-02-11T01:55:44.163Z,99.90
2018-02-11T01:58:14.181Z,99.90
2018-02-11T02:00:43.577Z,99.90
2018-02-11T02:03:12.836Z,99.90
2018-02-11T02:05:42.085Z,99.90
2018-02-11T02:08:11.505Z,99.90
2018-02-11T02:10:41.492Z,99.90
2018-02-11T02:13:10.764Z,99.90
2018-02-11T02:15:40.016Z,99.90
2018-02-11T02:18:10.038Z,99.70
2018-02-11T02:20:40.033Z,99.70
2018-02-11T02:23:09.346Z,99.70
2018-02-11T02:25:38.574Z,99.80
2018-02-11T02:28:07.845Z,99.90
2018-02-11T02:30:37.148Z,99.60
2018-02-11T02:33:06.389Z,99.40
2018-02-11T02:35:35.748Z,99.30
2018-02-11T02:38:05.242Z,99.20
2018-02-11T02:40:34.505Z,99.30
2018-02-11T02:43:03.761Z,99.30
2018-02-11T02:45:34.077Z,99.30
2018-02-11T02:48:03.332Z,99.30
2018-02-11T02:50:32.561Z,99.30
2018-02-11T02:53:01.808Z,99.40
2018-02-11T02:55:31.098Z,99.20
2018-02-11T02:58:00.348Z,99.10
2018-02-11T03:00:29.590Z,99.00
2018-02-11T03:02:58.856Z,99.00
2018-02-11T03:05:28.115Z,99.30
2018-02-11T03:07:57.360Z,98.70
2018-02-11T03:10:26.599Z,98.80
2018-02-11T03:12:55.835Z,98.80
2018-02-11T03:15:25.105Z,98.80
2018-02-11T03:17:55.114Z,98.70
2018-02-11T03:20:24.376Z,98.70
2018-02-11T03:22:53.595Z,98.60
2018-02-11T03:25:22.860Z,98.50
2018-02-11T03:27:52.089Z,98.60
2018-02-11T03:30:21.347Z,98.50
2018-02-11T03:32:50.585Z,98.40
2018-02-11T03:35:19.857Z,98.40
2018-02-11T03:37:49.085Z,98.40
2018-02-11T03:40:18.337Z,98.30
2018-02-11T03:42:47.577Z,98.20
2018-02-11T03:45:17.565Z,98.30
2018-02-11T03:47:46.796Z,98.20
2018-02-11T03:50:16.132Z,98.20
2018-02-11T03:52:46.137Z,98.00
2018-02-11T03:55:15.389Z,98.00
2018-02-11T03:57:44.867Z,98.20
2018-02-11T04:00:14.857Z,97.80
2018-02-11T04:02:45.122Z,97.80
2018-02-11T04:05:14.377Z,97.90
2018-02-11T04:07:43.610Z,97.70
2018-02-11T04:10:12.856Z,97.90
2018-02-11T04:12:42.105Z,97.70
2018-02-11T04:15:12.113Z,97.40
2018-02-11T04:17:41.370Z,97.40
2018-02-11T04:20:10.608Z,97.10
2018-02-11T04:22:40.618Z,97.00
2018-02-11T04:25:09.885Z,96.90
2018-02-11T04:27:39.118Z,96.90
2018-02-11T04:30:08.371Z,96.80
2018-02-11T04:32:37.612Z,96.80
2018-02-11T04:35:06.866Z,96.80
2018-02-11T04:37:36.131Z,96.90
2018-02-11T04:40:05.554Z,96.80
2018-02-11T04:42:34.817Z,96.90
2018-02-11T04:45:04.056Z,97.20
2018-02-11T04:47:33.305Z,97.40
2018-02-11T04:50:02.800Z,97.70
2018-02-11T04:52:32.055Z,98.00
2018-02-11T04:55:01.309Z,98.60
2018-02-11T04:57:30.556Z,99.10
2018-02-11T05:00:00.560Z,99.40
2018-02-11T05:02:29.793Z,99.40
2018-02-11T05:04:59.063Z,99.70
2018-02-11T05:07:28.280Z,99.90
2018-02-11T05:09:57.581Z,99.90
2018-02-11T05:12:26.970Z,99.90
2018-02-11T05:14:56.185Z,99.90
2018-02-11T05:17:25.457Z,99.90
2018-02-11T05:19:54.730Z,99.90
2018-02-11T05:22:23.922Z,99.90
2018-02-11T05:24:53.168Z,99.90
2018-02-11T05:27:22.445Z,99.90
2018-02-11T05:29:51.718Z,99.90
2018-02-11T05:32:20.960Z,99.90
2018-02-11T05:34:50.200Z,99.90
2018-02-11T05:37:19.552Z,99.90
2018-02-11T05:39:48.772Z,99.90
2018-02-11T05:42:18.793Z,99.90
2018-02-11T05:44:48.797Z,99.90
2018-02-11T05:47:18.106Z,99.90
2018-02-11T05:49:48.935Z,99.90
2018-02-11T05:52:18.220Z,99.90
2018-02-11T05:54:47.638Z,99.90
2018-02-11T05:57:16.875Z,99.90
2018-02-11T05:59:46.135Z,99.90
2018-02-11T06:02:15.395Z,99.90
2018-02-11T06:04:44.658Z,99.90
2018-02-11T06:07:14.006Z,99.90
2018-02-11T06:09:43.314Z,99.90
2018-02-11T06:12:12.580Z,99.90
2018-02-11T06:14:41.826Z,99.90
2018-02-11T06:17:11.077Z,99.90
2018-02-11T06:19:40.330Z,99.90
2018-02-11T06:22:09.588Z,99.90
2018-02-11T06:24:39.101Z,99.90
2018-02-11T06:27:08.371Z,99.90
2018-02-11T06:29:37.593Z,99.90
2018-02-11T06:32:06.847Z,99.90
2018-02-11T06:34:36.082Z,99.90
2018-02-11T06:37:05.352Z,99.90
2018-02-11T06:39:34.610Z,99.90
2018-02-11T06:42:03.856Z,99.90
2018-02-11T06:44:33.105Z,99.90
2018-02-11T06:47:03.093Z,99.90
2018-02-11T06:49:33.210Z,99.90
2018-02-11T06:52:02.445Z,99.90
2018-02-11T06:54:31.785Z,99.90
2018-02-11T06:57:01.152Z,99.90
2018-02-11T06:59:30.465Z,99.90
2018-02-11T07:01:59.697Z,99.90
2018-02-11T07:04:28.949Z,99.90
2018-02-11T07:06:58.233Z,99.90
2018-02-11T07:09:27.461Z,99.90
2018-02-11T07:11:56.735Z,99.90
2018-02-11T07:14:25.957Z,99.90
2018-02-11T07:16:55.193Z,99.90
2018-02-11T07:19:24.452Z,99.90
2018-02-11T07:21:53.713Z,99.90
2018-02-11T07:24:22.953Z,99.90
2018-02-11T07:26:52.253Z,99.90
2018-02-11T07:29:21.490Z,99.90
2018-02-11T07:31:50.730Z,99.90
2018-02-11T07:34:20.773Z,99.90
2018-02-11T07:36:50.026Z,99.90
2018-02-11T07:39:20.001Z,99.90
2018-02-11T07:41:49.272Z,99.90
2018-02-11T07:44:18.480Z,99.90
2018-02-11T07:46:47.743Z,99.90
2018-02-11T07:49:16.973Z,99.90
2018-02-11T07:51:46.329Z,99.90
2018-02-11T07:54:15.585Z,99.90
2018-02-11T07:56:44.829Z,99.90
2018-02-11T07:59:14.103Z,99.90
2018-02-11T08:01:43.353Z,99.90
2018-02-11T08:04:12.596Z,99.90
2018-02-11T08:06:41.873Z,99.90
2018-02-11T08:09:11.114Z,99.90
2018-02-11T08:11:40.364Z,99.90
2018-02-11T08:14:09.630Z,99.90
2018-02-11T08:16:38.906Z,99.90
2018-02-11T08:19:08.162Z,99.90
2018-02-11T08:21:37.526Z,99.90
2018-02-11T08:24:06.781Z,99.90
2018-02-11T08:26:36.781Z,99.90
2018-02-11T08:29:06.214Z,99.90
2018-02-11T08:31:35.463Z,99.90
2018-02-11T08:34:04.726Z,99.90
2018-02-11T08:36:33.981Z,99.90
2018-02-11T08:39:03.241Z,99.90
2018-02-11T08:41:32.497Z,99.90
2018-02-11T08:44:01.745Z,99.90
2018-02-11T08:46:30.991Z,99.90
2018-02-11T08:49:00.288Z,99.90
2018-02-11T08:51:29.515Z,99.90
2018-02-11T08:53:59.533Z,99.90
2018-02-11T08:56:29.500Z,99.90
2018-02-11T08:58:58.756Z,99.90
2018-02-11T09:01:28.155Z,99.90
2018-02-11T09:03:58.155Z,99.90
2018-02-11T09:06:27.413Z,99.90
2018-02-11T09:08:56.736Z,99.90
2018-02-11T09:11:26.035Z,99.90
2018-02-11T09:13:56.193Z,99.90
2018-02-11T09:16:25.434Z,99.90
2018-02-11T09:18:54.679Z,99.90
2018-02-11T09:21:23.941Z,99.90
2018-02-11T09:23:53.190Z,99.90
2018-02-11T09:26:22.473Z,99.90
2018-02-11T09:28:51.707Z,99.90
2018-02-11T09:31:21.823Z,99.90
2018-02-11T09:33:51.846Z,99.90
2018-02-11T09:36:21.110Z,99.90
2018-02-11T09:38:50.371Z,99.90
2018-02-11T09:41:19.607Z,99.90
2018-02-11T09:43:48.839Z,99.90
2018-02-11T09:46:18.076Z,99.90
2018-02-11T09:48:47.338Z,99.90
2018-02-11T09:51:17.363Z,99.90
2018-02-11T09:53:46.609Z,99.90
2018-02-11T09:56:15.857Z,99.90
2018-02-11T09:58:45.888Z,99.90
2018-02-11T10:01:15.127Z,99.90
2018-02-11T10:03:44.360Z,99.90
2018-02-11T10:06:13.766Z,99.90
2018-02-11T10:08:43.783Z,99.90
2018-02-11T10:11:13.043Z,99.90
2018-02-11T10:13:42.309Z,99.90
2018-02-11T10:16:11.794Z,99.90
2018-02-11T10:18:41.027Z,99.90
2018-02-11T10:21:10.297Z,99.90
2018-02-11T10:23:39.536Z,99.90
2018-02-11T10:26:08.837Z,99.90
2018-02-11T10:28:38.073Z,99.90
2018-02-11T10:31:07.327Z,99.90
2018-02-11T10:33:37.325Z,99.90
2018-02-11T10:36:06.582Z,99.90
2018-02-11T10:38:35.822Z,99.90
2018-02-11T10:41:05.835Z,99.90
2018-02-11T10:43:35.097Z,99.90
2018-02-11T10:46:04.332Z,99.90
2018-02-11T10:48:33.565Z,99.90
2018-02-11T10:51:02.837Z,99.70
2018-02-11T10:53:32.085Z,99.60
2018-02-11T10:56:01.346Z,99.90
2018-02-11T10:58:30.564Z,99.90
2018-02-11T11:00:59.820Z,99.90
2018-02-11T11:03:29.064Z,99.60
2018-02-11T11:05:58.315Z,98.00
2018-02-11T11:08:27.554Z,97.00
2018-02-11T11:10:56.788Z,96.20
2018-02-11T11:13:26.059Z,97.00
2018-02-11T11:15:56.085Z,96.90
2018-02-11T11:18:25.323Z,96.90
2018-02-11T11:20:54.638Z,97.50
2018-02-11T11:23:24.694Z,99.10
2018-02-11T11:25:54.701Z,99.50
2018-02-11T11:28:23.950Z,99.40
2018-02-11T11:30:53.204Z,99.60
2018-02-11T11:33:23.239Z,99.90
2018-02-11T11:35:52.458Z,99.90
2018-02-11T11:38:21.686Z,99.90
2018-02-11T11:40:51.004Z,99.90
2018-02-11T11:43:20.236Z,99.90
2018-02-11T11:45:49.517Z,99.90
2018-02-11T11:48:18.737Z,99.90
2018-02-11T11:50:48.744Z,99.90
2018-02-11T11:53:17.982Z,99.90
2018-02-11T11:55:47.230Z,99.90
2018-02-11T11:58:16.497Z,99.90
2018-02-11T12:00:45.736Z,99.90
2018-02-11T12:03:15.011Z,99.90
2018-02-11T12:05:44.260Z,99.90
2018-02-11T12:08:13.512Z,99.90
2018-02-11T12:10:43.504Z,99.90
2018-02-11T12:13:14.307Z,99.90
2018-02-11T12:15:43.561Z,99.90
2018-02-11T12:18:12.807Z,99.90
2018-02-11T12:20:42.827Z,99.90
2018-02-11T12:23:12.083Z,99.90
2018-02-11T12:25:41.322Z,99.90
2018-02-11T12:28:11.318Z,99.90
2018-02-11T12:30:40.564Z,99.90
2018-02-11T12:33:09.798Z,99.90
2018-02-11T12:35:39.082Z,99.90
2018-02-11T12:38:08.336Z,99.90
2018-02-11T12:40:37.597Z,99.90
2018-02-11T12:43:06.838Z,99.90
2018-02-11T12:45:36.885Z,99.90
2018-02-11T12:48:06.115Z,99.90
2018-02-11T12:50:35.376Z,99.90
2018-02-11T12:53:04.607Z,99.90
2018-02-11T12:55:33.888Z,99.90
2018-02-11T12:58:03.280Z,99.90
2018-02-11T13:00:33.318Z,99.90
2018-02-11T13:03:02.598Z,99.90
2018-02-11T13:05:32.445Z,99.90
2018-02-11T13:08:01.701Z,99.90
2018-02-11T13:10:31.843Z,99.90
2018-02-11T13:13:01.069Z,99.90
2018-02-11T13:15:30.344Z,99.90
2018-02-11T13:17:59.587Z,98.90
2018-02-11T13:20:28.839Z,98.40
2018-02-11T13:22:58.080Z,98.60
2018-02-11T13:25:27.386Z,98.10
2018-02-11T13:27:56.658Z,98.80
2018-02-11T13:30:26.082Z,98.90
2018-02-11T13:32:55.301Z,99.10
2018-02-11T13:35:24.542Z,99.30
2018-02-11T13:37:53.812Z,99.90
2018-02-11T13:40:23.043Z,99.90
2018-02-11T13:42:53.105Z,99.90
2018-02-11T13:45:22.360Z,99.90
2018-02-11T13:47:51.608Z,99.90
2018-02-11T13:50:20.835Z,99.90
2018-02-11T13:52:50.151Z,99.90
2018-02-11T13:55:19.360Z,99.90
2018-02-11T13:57:48.636Z,99.90
2018-02-11T14:00:18.759Z,99.90
2018-02-11T14:02:48.014Z,99.90
2018-02-11T14:05:17.297Z,99.90
2018-02-11T14:07:46.561Z,99.90
2018-02-11T14:10:15.886Z,99.90
2018-02-11T14:12:45.194Z,99.90
2018-02-11T14:15:14.389Z,99.90
2018-02-11T14:17:43.621Z,99.90
2018-02-11T14:20:12.870Z,99.90
2018-02-11T14:22:42.877Z,99.90
2018-02-11T14:25:13.635Z,99.90
2018-02-11T14:27:42.877Z,99.90
2018-02-11T14:30:12.127Z,99.90
2018-02-11T14:32:42.137Z,99.90
2018-02-11T14:35:11.432Z,99.90
2018-02-11T14:37:40.662Z,99.90
2018-02-11T14:40:10.720Z,99.90
2018-02-11T14:42:39.977Z,99.90
2018-02-11T14:45:09.230Z,99.90
2018-02-11T14:47:38.481Z,99.90
2018-02-11T14:50:08.484Z,99.90
2018-02-11T14:52:37.868Z,99.90
2018-02-11T14:55:07.157Z,99.90
2018-02-11T14:57:36.397Z,99.90
2018-02-11T15:00:05.806Z,99.90
2018-02-11T15:02:34.912Z,99.90
2018-02-11T15:05:04.177Z,99.90
2018-02-11T15:07:33.428Z,99.90
2018-02-11T15:10:02.689Z,99.90
2018-02-11T15:12:31.929Z,99.90
2018-02-11T15:15:01.197Z,99.90
2018-02-11T15:17:31.252Z,99.90
2018-02-11T15:20:00.484Z,99.90
2018-02-11T15:22:29.757Z,99.90
2018-02-11T15:24:59.029Z,99.90
2018-02-11T15:27:28.444Z,99.90
2018-02-11T15:29:57.692Z,99.90
2018-02-11T15:32:26.938Z,99.90
2018-02-11T15:34:56.937Z,99.90
2018-02-11T15:37:26.233Z,99.90
2018-02-11T15:39:55.539Z,99.90
2018-02-11T15:42:24.728Z,99.90
2018-02-11T15:44:53.989Z,99.90
2018-02-11T15:47:23.252Z,99.90
2018-02-11T15:49:53.175Z,99.90
2018-02-11T15:52:23.156Z,99.90
2018-02-11T15:54:52.410Z,99.90
2018-02-11T15:57:21.637Z,99.90
2018-02-11T15:59:50.885Z,99.90
2018-02-11T16:02:20.998Z,99.90
2018-02-11T16:04:51.031Z,99.90
2018-02-11T16:07:21.031Z,99.90
2018-02-11T16:09:50.321Z,99.90
2018-02-11T16:12:19.548Z,99.90
2018-02-11T16:14:49.562Z,99.90
2018-02-11T16:17:19.621Z,99.90
2018-02-11T16:19:48.986Z,99.90
2018-02-11T16:22:18.246Z,99.90
2018-02-11T16:24:47.894Z,99.90
2018-02-11T16:27:17.930Z,99.90
2018-02-11T16:29:47.193Z,99.90
2018-02-11T16:32:16.469Z,99.90
2018-02-11T16:34:45.751Z,99.90
2018-02-11T16:37:14.992Z,99.90
2018-02-11T16:39:44.267Z,99.90
2018-02-11T16:42:13.538Z,99.90
2018-02-11T16:44:42.800Z,99.90
2018-02-11T16:47:12.022Z,99.90
2018-02-11T16:49:41.333Z,99.90
2018-02-11T16:52:10.638Z,99.90
2018-02-11T16:54:40.598Z,99.90
2018-02-11T16:57:09.852Z,99.90
2018-02-11T16:59:39.132Z,99.90
2018-02-11T17:02:08.353Z,99.90
2018-02-11T17:04:37.604Z,99.90
2018-02-11T17:07:06.942Z,99.90
2018-02-11T17:09:36.186Z,99.90
2018-02-11T17:12:05.424Z,99.90
2018-02-11T17:14:34.685Z,99.90
2018-02-11T17:17:03.967Z,99.90
2018-02-11T17:19:33.258Z,99.90
2018-02-11T17:22:02.541Z,99.90
2018-02-11T17:24:32.588Z,99.90
2018-02-11T17:27:01.849Z,99.90
2018-02-11T17:29:31.083Z,99.90
2018-02-11T17:32:00.321Z,99.90
2018-02-11T17:34:29.583Z,99.90
2018-02-11T17:36:58.825Z,99.90
2018-02-11T17:39:28.092Z,99.90
2018-02-11T17:41:57.353Z,99.90
2018-02-11T17:44:26.596Z,99.90
2018-02-11T17:46:55.878Z,99.90
2018-02-11T17:49:25.109Z,99.90
2018-02-11T17:51:54.332Z,99.90
2018-02-11T17:54:24.204Z,99.90
2018-02-11T17:56:53.453Z,99.90
2018-02-11T17:59:24.221Z,99.90
2018-02-11T18:01:53.477Z,99.90
2018-02-11T18:04:22.708Z,99.90
2018-02-11T18:06:52.737Z,99.90
2018-02-11T18:09:21.985Z,99.90
2018-02-11T18:11:51.204Z,99.90
2018-02-11T18:14:21.203Z,99.90
2018-02-11T18:16:50.538Z,99.90
2018-02-11T18:19:19.776Z,99.90
2018-02-11T18:21:50.070Z,99.90
2018-02-11T18:24:20.110Z,99.90
2018-02-11T18:26:49.616Z,99.90
2018-02-11T18:29:18.912Z,99.90
2018-02-11T18:31:48.170Z,99.90
2018-02-11T18:34:17.414Z,99.90
2018-02-11T18:36:47.427Z,99.90
2018-02-11T18:39:16.681Z,99.90
2018-02-11T18:41:45.984Z,99.90
2018-02-11T18:44:15.216Z,99.90
2018-02-11T18:46:44.465Z,99.90
2018-02-11T18:49:13.720Z,99.90
2018-02-11T18:51:43.745Z,99.90
2018-02-11T18:54:13.786Z,99.90
2018-02-11T18:56:43.064Z,99.90
2018-02-11T18:59:13.090Z,99.90
2018-02-11T19:01:42.361Z,99.90
2018-02-11T19:04:11.630Z,99.90
2018-02-11T19:06:40.911Z,99.90
2018-02-11T19:09:10.168Z,99.90
2018-02-11T19:11:39.442Z,99.90
2018-02-11T19:14:08.718Z,99.90
2018-02-11T19:16:38.159Z,99.90
2018-02-11T19:19:07.432Z,99.90
2018-02-11T19:21:36.722Z,99.90
2018-02-11T19:24:06.015Z,99.90
2018-02-11T19:26:35.209Z,99.90
2018-02-11T19:29:04.525Z,99.90
2018-02-11T19:31:34.624Z,99.90
2018-02-11T19:34:04.647Z,99.90
2018-02-11T19:36:33.896Z,99.90
2018-02-11T19:39:03.252Z,99.90
2018-02-11T19:41:32.501Z,99.90
2018-02-11T19:44:01.790Z,99.90
2018-02-11T19:46:31.849Z,99.90
2018-02-11T19:49:01.927Z,99.90
2018-02-11T19:51:31.203Z,99.90
2018-02-11T19:54:00.534Z,99.90
2018-02-11T19:56:29.782Z,99.90
2018-02-11T19:58:59.105Z,99.90
2018-02-11T20:01:28.383Z,99.90
2018-02-11T20:03:57.663Z,99.90
2018-02-11T20:06:26.933Z,99.90
2018-02-11T20:08:56.170Z,99.90
2018-02-11T20:11:25.404Z,99.90
2018-02-11T20:13:54.868Z,99.90
2018-02-11T20:16:24.205Z,99.90
2018-02-11T20:18:53.808Z,99.90
2018-02-11T20:21:23.203Z,99.90
2018-02-11T20:23:52.699Z,99.90
2018-02-11T20:26:21.926Z,99.90
2018-02-11T20:28:51.236Z,99.90
2018-02-11T20:31:20.608Z,99.90
2018-02-11T20:33:49.880Z,99.90
2018-02-11T20:36:19.118Z,99.90
2018-02-11T20:38:49.197Z,99.90
2018-02-11T20:41:18.434Z,99.90
2018-02-11T20:43:47.664Z,99.90
2018-02-11T20:46:16.944Z,99.90
2018-02-11T20:48:46.191Z,99.90
2018-02-11T20:51:15.445Z,99.90
2018-02-11T20:53:45.465Z,99.90
2018-02-11T20:56:15.484Z,99.90
2018-02-11T20:58:44.713Z,99.90
2018-02-11T21:01:13.968Z,99.90
2018-02-11T21:03:43.242Z,99.90
2018-02-11T21:06:12.511Z,99.90
2018-02-11T21:08:41.726Z,99.90
2018-02-11T21:11:10.987Z,99.90
2018-02-11T21:13:40.255Z,99.90
2018-02-11T21:16:09.515Z,99.90
2018-02-11T21:18:38.773Z,99.90
2018-02-11T21:21:08.773Z,99.90
2018-02-11T21:23:38.049Z,99.90
2018-02-11T21:26:07.275Z,99.90
2018-02-11T21:28:36.530Z,99.90
2018-02-11T21:31:06.557Z,99.90
2018-02-11T21:33:35.788Z,99.90
2018-02-11T21:36:05.109Z,99.90
2018-02-11T21:38:35.109Z,99.90
2018-02-11T21:41:04.372Z,99.90
2018-02-11T21:43:33.609Z,99.90
2018-02-11T21:46:04.375Z,99.90
2018-02-11T21:48:33.626Z,99.90
2018-02-11T21:51:03.556Z,99.90
2018-02-11T21:53:32.821Z,99.90
2018-02-11T21:56:02.087Z,99.90
2018-02-11T21:58:32.117Z,99.90
2018-02-11T22:01:01.370Z,99.90
2018-02-11T22:03:30.599Z,99.90
2018-02-11T22:05:59.869Z,99.90
2018-02-11T22:08:29.109Z,99.90
2018-02-11T22:10:58.341Z,99.90
2018-02-11T22:13:27.589Z,99.90
2018-02-11T22:15:56.843Z,99.90
2018-02-11T22:18:26.091Z,99.90
2018-02-11T22:20:55.320Z,99.90
2018-02-11T22:23:24.582Z,99.90
2018-02-11T22:25:53.849Z,99.90
2018-02-11T22:28:23.093Z,99.90
2018-02-11T22:30:52.321Z,99.90
2018-02-11T22:33:21.628Z,99.90
2018-02-11T22:35:51.061Z,99.90
2018-02-11T22:38:20.313Z,99.90
2018-02-11T22:40:49.569Z,99.90
2018-02-11T22:43:18.812Z,99.90
2018-02-11T22:45:48.858Z,99.90
2018-02-11T22:48:18.323Z,99.90
2018-02-11T22:50:47.630Z,99.90
2018-02-11T22:53:16.867Z,99.90
2018-02-11T22:55:46.116Z,99.90
2018-02-11T22:58:15.370Z,99.90
2018-02-11T23:00:44.611Z,99.90
2018-02-11T23:03:13.864Z,99.90
2018-02-11T23:05:43.102Z,99.90
2018-02-11T23:08:12.347Z,99.90
2018-02-11T23:10:41.588Z,99.90
2018-02-11T23:13:10.866Z,99.90
2018-02-11T23:15:40.128Z,99.90
2018-02-11T23:18:09.422Z,99.90
2018-02-11T23:20:38.656Z,99.90
2018-02-11T23:23:07.901Z,99.90
2018-02-11T23:25:37.212Z,99.90
2018-02-11T23:28:06.473Z,99.90
2018-02-11T23:30:36.380Z,99.90
2018-02-11T23:33:05.655Z,99.90
2018-02-11T23:35:34.909Z,99.90
2018-02-11T23:38:04.134Z,99.90
2018-02-11T23:40:33.489Z,99.90
2018-02-11T23:43:03.533Z,99.90
2018-02-11T23:45:32.788Z,99.90
2018-02-11T23:48:02.026Z,99.90
2018-02-11T23:50:31.322Z,99.90
2018-02-11T23:53:01.300Z,99.90
2018-02-11T23:55:32.080Z,99.90
2018-02-11T23:58:01.344Z,99.90
